Terminal Aerodrome Forecast
Issued by NWS

Home | Current Version | Previous Version | Text Only | Print | Product List | Glossary On
Versions: 1 2 3 4 5 6 7 8 9 10 11 12 13
000
FTUS45 KVEF 182300
TAFDAG
TAF
KDAG 182320Z 1900/1924 15010KT P6SM SCT100 SCT150 OVC200
     FM190200 21011KT P6SM SCT100 SCT150 OVC200
     FM190400 25009KT P6SM SCT100 SCT150
     FM191500 30008KT P6SM SCT100=

USA.gov is the U.S. government's official web portal to all federal, state and local government web resources and services.